Time;durP1;ratioP1;P1;durP2;ratioP2;P2;SDS_P1;SDS_P2;PMS_P1;PMS_P2;Temp;Humidity;BMP_temperature;BMP_pressure;BME280_temperature;BME280_humidity;BME280_pressure;Samples;Min_cycle;Max_cycle;Signal;HPM_P1;HPM_P2
2022/06/28 00:00:26;;;;;;;7.13;4.50;;;;;;;;;;5022564;28;20423;-62
2022/06/28 00:02:52;;;;;;;7.72;4.95;;;;;;;;;;5019453;28;20083;-64
2022/06/28 00:05:19;;;;;;;6.03;4.80;;;;;;;;;;5044729;28;20048;-63
2022/06/28 00:07:45;;;;;;;6.03;4.78;;;;;;;;;;5034098;28;20099;-63
2022/06/28 00:10:12;;;;;;;7.03;5.20;;;;;;;;;;5036847;28;20139;-63
2022/06/28 00:12:39;;;;;;;7.30;4.65;;;;;;;;;;5017283;28;20147;-64
2022/06/28 00:17:52;;;;;;;9.48;5.45;;;;;;;;;;5042475;28;20041;-63
2022/06/28 00:20:18;;;;;;;7.25;4.82;;;;;;;;;;5025936;28;20436;-63
2022/06/28 00:22:45;;;;;;;8.20;5.03;;;;;;;;;;5030266;28;20451;-63
2022/06/28 00:25:11;;;;;;;7.28;5.55;;;;;;;;;;5022723;28;20060;-62
2022/06/28 00:27:38;;;;;;;9.10;5.88;;;;;;;;;;5035289;28;20540;-63
2022/06/28 00:30:04;;;;;;;10.82;6.03;;;;;;;;;;5024517;28;20053;-62
2022/06/28 00:32:32;;;;;;;6.35;5.20;;;;;;;;;;5040569;28;20044;-62
2022/06/28 00:35:02;;;;;;;7.40;5.50;;;;;;;;;;5041085;28;20044;-62
2022/06/28 00:37:28;;;;;;;7.32;5.35;;;;;;;;;;5016399;28;20392;-62
2022/06/28 00:39:55;;;;;;;7.38;6.00;;;;;;;;;;5043075;28;20051;-62
2022/06/28 00:42:21;;;;;;;7.82;6.05;;;;;;;;;;5026458;28;20420;-63
2022/06/28 00:44:49;;;;;;;8.48;6.82;;;;;;;;;;5037361;28;20332;-62
2022/06/28 00:47:15;;;;;;;8.40;6.20;;;;;;;;;;5035667;28;20598;-61
2022/06/28 00:49:42;;;;;;;9.02;6.35;;;;;;;;;;5016212;28;20057;-63
2022/06/28 00:52:09;;;;;;;8.35;6.82;;;;;;;;;;5040728;28;20083;-61
2022/06/28 00:54:36;;;;;;;9.52;6.30;;;;;;;;;;5032965;28;20055;-62
2022/06/28 00:57:02;;;;;;;10.00;6.78;;;;;;;;;;5030009;28;20092;-62
2022/06/28 00:59:29;;;;;;;8.48;6.82;;;;;;;;;;5021962;28;20498;-62
2022/06/28 01:01:58;;;;;;;9.75;6.97;;;;;;;;;;5044475;28;20041;-63
2022/06/28 01:04:25;;;;;;;12.13;7.22;;;;;;;;;;5036691;28;20537;-63
2022/06/28 01:06:52;;;;;;;14.45;7.10;;;;;;;;;;5027151;28;20053;-63
2022/06/28 01:09:19;;;;;;;10.95;6.90;;;;;;;;;;5037543;28;20049;-64
2022/06/28 01:11:45;;;;;;;8.55;6.75;;;;;;;;;;5027561;28;20090;-63
2022/06/28 01:14:11;;;;;;;8.48;6.13;;;;;;;;;;5037704;28;20053;-63
2022/06/28 01:16:38;;;;;;;7.75;5.88;;;;;;;;;;5031835;28;20064;-63
2022/06/28 01:19:05;;;;;;;12.75;6.20;;;;;;;;;;5034097;28;20114;-63
2022/06/28 01:21:33;;;;;;;15.93;7.57;;;;;;;;;;5034981;28;20108;-62
2022/06/28 01:23:59;;;;;;;10.07;7.13;;;;;;;;;;5031344;28;20124;-63
2022/06/28 01:26:25;;;;;;;7.95;6.88;;;;;;;;;;5036654;28;20055;-63
2022/06/28 01:28:52;;;;;;;11.68;7.00;;;;;;;;;;5039721;28;20156;-64
2022/06/28 01:31:20;;;;;;;9.68;6.25;;;;;;;;;;5041822;28;20145;-61
2022/06/28 01:33:46;;;;;;;10.15;6.38;;;;;;;;;;5035560;28;20086;-63
2022/06/28 01:36:13;;;;;;;8.02;6.85;;;;;;;;;;5025268;28;20498;-63
2022/06/28 01:38:41;;;;;;;8.20;6.55;;;;;;;;;;5029456;28;20051;-62
2022/06/28 01:41:08;;;;;;;10.30;7.60;;;;;;;;;;5025066;28;20160;-62
2022/06/28 01:43:38;;;;;;;8.60;6.80;;;;;;;;;;5037286;28;20047;-63
2022/06/28 01:46:06;;;;;;;9.00;7.40;;;;;;;;;;5033935;28;20265;-63
2022/06/28 01:48:32;;;;;;;9.18;7.40;;;;;;;;;;5042078;28;20049;-63
2022/06/28 01:50:59;;;;;;;13.82;8.32;;;;;;;;;;5038855;28;20045;-62
2022/06/28 01:53:26;;;;;;;12.30;7.63;;;;;;;;;;5034574;28;20591;-62
2022/06/28 01:55:52;;;;;;;11.63;8.00;;;;;;;;;;5040447;28;20041;-64
2022/06/28 01:58:18;;;;;;;8.57;7.68;;;;;;;;;;5032160;28;20059;-63
2022/06/28 02:00:45;;;;;;;10.45;7.32;;;;;;;;;;5039794;28;20048;-63
2022/06/28 02:03:11;;;;;;;9.68;7.30;;;;;;;;;;5040700;28;20511;-62
2022/06/28 02:05:37;;;;;;;13.13;7.07;;;;;;;;;;5025375;28;20559;-63
2022/06/28 02:08:04;;;;;;;8.57;6.97;;;;;;;;;;5032176;28;20215;-63
2022/06/28 02:10:30;;;;;;;11.00;7.50;;;;;;;;;;5025908;28;20168;-63
2022/06/28 02:12:57;;;;;;;8.45;7.63;;;;;;;;;;5036149;28;20483;-62
2022/06/28 02:15:23;;;;;;;12.40;8.45;;;;;;;;;;5027153;28;20053;-63
2022/06/28 02:17:49;;;;;;;8.52;7.18;;;;;;;;;;5038556;28;20055;-63
2022/06/28 02:20:16;;;;;;;10.68;7.78;;;;;;;;;;5036767;28;20041;-61
2022/06/28 02:22:42;;;;;;;10.07;7.20;;;;;;;;;;5023437;28;20111;-62
2022/06/28 02:25:09;;;;;;;9.45;7.63;;;;;;;;;;5038256;28;20045;-63
2022/06/28 02:27:35;;;;;;;9.23;7.28;;;;;;;;;;5023193;28;20059;-63
2022/06/28 02:30:02;;;;;;;9.43;7.63;;;;;;;;;;5035678;28;20535;-63
2022/06/28 02:32:28;;;;;;;10.38;7.88;;;;;;;;;;5041233;28;20055;-62
2022/06/28 02:40:41;;;;;;;9.75;8.32;;;;;;;;;;4953052;28;20134;-63
2022/06/28 02:43:08;;;;;;;10.98;8.18;;;;;;;;;;5018719;28;20048;-63
2022/06/28 02:45:35;;;;;;;10.18;7.35;;;;;;;;;;5032052;28;20059;-61
2022/06/28 02:48:02;;;;;;;9.65;7.72;;;;;;;;;;5041507;28;20044;-63
2022/06/28 02:50:29;;;;;;;11.07;7.63;;;;;;;;;;5031338;28;20045;-64
2022/06/28 02:52:55;;;;;;;8.88;7.32;;;;;;;;;;5040204;28;20144;-64
2022/06/28 02:55:21;;;;;;;10.80;7.80;;;;;;;;;;5032409;28;20296;-64
2022/06/28 02:57:48;;;;;;;10.00;7.95;;;;;;;;;;5022636;28;20487;-61
2022/06/28 03:00:15;;;;;;;13.77;6.32;;;;;;;;;;5038467;28;20503;-63
2022/06/28 03:02:43;;;;;;;7.55;6.32;;;;;;;;;;5024543;28;20099;-63
2022/06/28 03:05:13;;;;;;;7.65;6.30;;;;;;;;;;5042698;28;20127;-63
2022/06/28 03:07:39;;;;;;;;;;;;;;;;;;5031328;28;20485;-63
2022/06/28 03:10:06;;;;;;;7.57;6.53;;;;;;;;;;5025243;28;19925;-63
2022/06/28 03:12:32;;;;;;;10.90;7.88;;;;;;;;;;5037557;28;20060;-63
2022/06/28 03:14:59;;;;;;;9.00;7.10;;;;;;;;;;5031404;28;20516;-61
2022/06/28 03:17:25;;;;;;;10.18;7.40;;;;;;;;;;5032929;28;20388;-63
2022/06/28 03:19:51;;;;;;;10.48;8.20;;;;;;;;;;5031033;28;20158;-63
2022/06/28 03:22:18;;;;;;;11.18;7.40;;;;;;;;;;5030243;28;20053;-62
2022/06/28 03:24:44;;;;;;;8.23;6.95;;;;;;;;;;5035085;28;20049;-63
2022/06/28 03:27:11;;;;;;;9.43;7.13;;;;;;;;;;5027111;28;20050;-63
2022/06/28 03:29:37;;;;;;;7.63;5.85;;;;;;;;;;5030696;28;20053;-64
2022/06/28 03:32:03;;;;;;;10.23;5.97;;;;;;;;;;5029049;28;20052;-62
2022/06/28 03:34:30;;;;;;;9.20;6.25;;;;;;;;;;5037735;28;20048;-62
2022/06/28 03:36:56;;;;;;;10.60;6.13;;;;;;;;;;5031209;28;20092;-62
2022/06/28 03:39:23;;;;;;;7.18;6.43;;;;;;;;;;5038876;28;20056;-62
2022/06/28 03:41:49;;;;;;;9.50;6.63;;;;;;;;;;5029441;28;20425;-63
2022/06/28 03:44:15;;;;;;;8.60;6.68;;;;;;;;;;5023723;28;20496;-63
2022/06/28 03:46:42;;;;;;;9.15;7.05;;;;;;;;;;5021950;28;20140;-62
2022/06/28 03:49:08;;;;;;;9.68;7.15;;;;;;;;;;5028301;28;20052;-62
2022/06/28 03:51:34;;;;;;;9.93;7.10;;;;;;;;;;5033988;28;20047;-62
2022/06/28 03:54:07;;;;;;;7.90;6.70;;;;;;;;;;5020102;28;20129;-62
2022/06/28 03:56:34;;;;;;;9.55;7.18;;;;;;;;;;5029923;28;20063;-63
2022/06/28 03:59:00;;;;;;;7.85;6.32;;;;;;;;;;5030337;28;20056;-62
2022/06/28 04:01:26;;;;;;;8.52;6.65;;;;;;;;;;5037665;28;20053;-62
2022/06/28 04:03:53;;;;;;;9.38;6.47;;;;;;;;;;5037265;28;20076;-63
2022/06/28 04:06:19;;;;;;;8.30;6.97;;;;;;;;;;5044114;28;20056;-63
2022/06/28 04:08:45;;;;;;;10.38;6.60;;;;;;;;;;5041428;28;20059;-62
2022/06/28 04:11:15;;;;;;;8.23;6.82;;;;;;;;;;5040061;28;20049;-62
2022/06/28 04:13:49;;;;;;;9.90;7.70;;;;;;;;;;5034861;28;20167;-62
2022/06/28 04:16:15;;;;;;;9.40;7.50;;;;;;;;;;5033703;28;20504;-62
2022/06/28 04:18:43;;;;;;;11.75;7.57;;;;;;;;;;5019566;28;20486;-63
2022/06/28 04:21:10;;;;;;;9.40;8.40;;;;;;;;;;5037432;28;20056;-62
2022/06/28 04:23:37;;;;;;;9.35;7.65;;;;;;;;;;5042901;28;20288;-64
2022/06/28 04:26:03;;;;;;;13.82;7.95;;;;;;;;;;5035627;28;20089;-63
2022/06/28 04:28:30;;;;;;;9.70;7.97;;;;;;;;;;5035835;28;20139;-63
2022/06/28 04:30:56;;;;;;;11.05;9.15;;;;;;;;;;5026756;28;20055;-63
2022/06/28 04:33:23;;;;;;;10.18;7.82;;;;;;;;;;5043619;28;20503;-62
2022/06/28 04:35:49;;;;;;;11.50;9.15;;;;;;;;;;5035672;28;20502;-62
2022/06/28 04:38:16;;;;;;;9.50;8.60;;;;;;;;;;5043354;28;20048;-63
2022/06/28 04:40:42;;;;;;;9.85;8.43;;;;;;;;;;5043618;28;20140;-62
2022/06/28 04:43:08;;;;;;;12.00;8.55;;;;;;;;;;5036421;28;20053;-62
2022/06/28 04:45:35;;;;;;;10.15;8.02;;;;;;;;;;5040690;28;20682;-62
2022/06/28 04:48:01;;;;;;;10.30;8.23;;;;;;;;;;5036635;28;20049;-63
2022/06/28 04:50:28;;;;;;;9.93;8.65;;;;;;;;;;5035690;28;20051;-62
2022/06/28 04:52:54;;;;;;;10.43;6.93;;;;;;;;;;5031363;28;20128;-61
2022/06/28 04:55:20;;;;;;;11.05;7.72;;;;;;;;;;5037380;28;20059;-64
2022/06/28 04:57:47;;;;;;;11.90;7.75;;;;;;;;;;5047253;28;20045;-62
2022/06/28 05:00:14;;;;;;;11.73;7.90;;;;;;;;;;5028507;28;20496;-62
2022/06/28 05:02:41;;;;;;;13.90;7.32;;;;;;;;;;5038235;28;20494;-63
2022/06/28 05:05:08;;;;;;;14.00;7.40;;;;;;;;;;5032897;28;20055;-62
2022/06/28 05:07:35;;;;;;;8.50;6.90;;;;;;;;;;5032274;28;20104;-62
2022/06/28 05:10:02;;;;;;;11.00;6.60;;;;;;;;;;5024023;28;20055;-62
2022/06/28 05:12:28;;;;;;;11.60;6.97;;;;;;;;;;5023555;28;20044;-62
2022/06/28 05:14:55;;;;;;;12.27;6.45;;;;;;;;;;5039922;28;20132;-64
2022/06/28 05:17:21;;;;;;;12.88;6.97;;;;;;;;;;5021442;28;20505;-63
2022/06/28 05:19:48;;;;;;;11.00;6.55;;;;;;;;;;5026333;28;20051;-63
2022/06/28 05:22:15;;;;;;;11.98;5.45;;;;;;;;;;5023007;28;20049;-62
2022/06/28 05:24:41;;;;;;;9.35;6.15;;;;;;;;;;5029447;28;20498;-63
2022/06/28 05:27:07;;;;;;;9.48;5.80;;;;;;;;;;5039197;28;20162;-62
2022/06/28 05:29:34;;;;;;;11.65;5.20;;;;;;;;;;5030032;28;20067;-62
2022/06/28 05:32:01;;;;;;;9.95;5.88;;;;;;;;;;5037041;28;20053;-62
2022/06/28 05:34:27;;;;;;;11.45;6.70;;;;;;;;;;5033481;28;20084;-63
2022/06/28 05:36:54;;;;;;;9.98;6.13;;;;;;;;;;5042814;28;20411;-62
2022/06/28 05:39:21;;;;;;;10.07;5.82;;;;;;;;;;5029950;28;20044;-62
2022/06/28 05:41:47;;;;;;;10.70;6.53;;;;;;;;;;5038327;28;20051;-63
2022/06/28 05:44:14;;;;;;;7.93;5.50;;;;;;;;;;5042442;28;20162;-63
2022/06/28 05:46:40;;;;;;;9.05;5.10;;;;;;;;;;5026550;28;20045;-63
2022/06/28 05:49:07;;;;;;;8.82;5.97;;;;;;;;;;5040842;28;20127;-62
2022/06/28 05:51:34;;;;;;;12.90;6.43;;;;;;;;;;5027467;28;20053;-63
2022/06/28 05:54:01;;;;;;;9.27;5.80;;;;;;;;;;5041834;28;20052;-62
2022/06/28 05:56:28;;;;;;;14.30;5.57;;;;;;;;;;5040139;28;20515;-62
2022/06/28 05:58:54;;;;;;;15.52;5.75;;;;;;;;;;5023791;28;20060;-61
2022/06/28 06:01:22;;;;;;;13.68;5.68;;;;;;;;;;5034622;28;20160;-62
2022/06/28 06:03:49;;;;;;;9.65;5.22;;;;;;;;;;5028501;28;20516;-64
2022/06/28 06:06:15;;;;;;;15.52;6.15;;;;;;;;;;5038609;28;20424;-63
2022/06/28 06:08:42;;;;;;;8.57;4.80;;;;;;;;;;5026156;28;20071;-63
2022/06/28 06:11:08;;;;;;;11.48;5.22;;;;;;;;;;5035171;28;20059;-62
2022/06/28 06:13:35;;;;;;;9.68;5.50;;;;;;;;;;5029350;28;20059;-64
2022/06/28 06:16:02;;;;;;;11.07;5.22;;;;;;;;;;5024828;28;20488;-62
2022/06/28 06:18:28;;;;;;;15.52;5.88;;;;;;;;;;5039520;28;20163;-62
2022/06/28 06:20:54;;;;;;;12.23;4.97;;;;;;;;;;5027160;28;20852;-62
2022/06/28 06:23:21;;;;;;;9.98;5.35;;;;;;;;;;5035061;28;20504;-64
2022/06/28 06:25:47;;;;;;;16.65;5.15;;;;;;;;;;5029245;28;20045;-63
2022/06/28 06:28:13;;;;;;;12.60;4.43;;;;;;;;;;5024288;28;20080;-63
2022/06/28 06:30:41;;;;;;;13.30;4.72;;;;;;;;;;5020701;28;20059;-63
2022/06/28 06:33:07;;;;;;;11.90;4.28;;;;;;;;;;5030883;28;20055;-63
2022/06/28 06:35:34;;;;;;;16.55;5.07;;;;;;;;;;5029686;28;20060;-65
2022/06/28 06:38:00;;;;;;;11.00;4.68;;;;;;;;;;5037290;28;20055;-65
2022/06/28 06:40:27;;;;;;;13.80;4.82;;;;;;;;;;5040526;28;20080;-64
2022/06/28 06:42:54;;;;;;;14.63;5.40;;;;;;;;;;5033039;28;20152;-65
2022/06/28 06:45:20;;;;;;;11.82;4.55;;;;;;;;;;5041782;28;20424;-65
2022/06/28 06:47:46;;;;;;;13.07;4.13;;;;;;;;;;5040271;28;20063;-65
2022/06/28 06:50:13;;;;;;;14.35;6.20;;;;;;;;;;5048518;28;20063;-65
2022/06/28 06:52:40;;;;;;;18.77;4.90;;;;;;;;;;5041962;28;20057;-64
2022/06/28 06:55:07;;;;;;;18.55;4.90;;;;;;;;;;5032138;28;20143;-63
2022/06/28 06:57:33;;;;;;;12.75;5.93;;;;;;;;;;5033026;28;20059;-66
2022/06/28 07:00:00;;;;;;;16.73;5.50;;;;;;;;;;5041242;28;20044;-64
2022/06/28 07:02:26;;;;;;;12.45;5.25;;;;;;;;;;5019180;28;20098;-65
2022/06/28 07:04:53;;;;;;;17.73;5.70;;;;;;;;;;5040698;28;20060;-65
2022/06/28 07:07:19;;;;;;;12.45;4.88;;;;;;;;;;5030668;28;20134;-65
2022/06/28 07:09:45;;;;;;;17.90;6.28;;;;;;;;;;5035516;28;20608;-65
2022/06/28 07:12:12;;;;;;;18.30;5.20;;;;;;;;;;5029629;28;20688;-64
2022/06/28 07:14:38;;;;;;;13.45;4.63;;;;;;;;;;5025174;28;20048;-65
2022/06/28 07:17:04;;;;;;;15.48;5.13;;;;;;;;;;5039175;28;20044;-65
2022/06/28 07:19:31;;;;;;;15.60;5.30;;;;;;;;;;5022115;28;20084;-65
2022/06/28 07:21:57;;;;;;;15.60;5.75;;;;;;;;;;5028102;28;20049;-65
2022/06/28 07:24:23;;;;;;;12.18;4.72;;;;;;;;;;5027537;28;20540;-65
2022/06/28 07:26:50;;;;;;;10.95;4.82;;;;;;;;;;5034087;28;20052;-67
2022/06/28 07:29:16;;;;;;;19.63;5.80;;;;;;;;;;5039411;28;20052;-64
2022/06/28 07:31:44;;;;;;;16.92;4.70;;;;;;;;;;5018493;28;20048;-65
2022/06/28 07:34:11;;;;;;;;;;;;;;;;;;5040004;28;20063;-65
2022/06/28 07:36:37;;;;;;;12.15;4.13;;;;;;;;;;5029800;28;20194;-65
2022/06/28 07:39:04;;;;;;;21.98;5.20;;;;;;;;;;5026440;28;20135;-65
2022/06/28 07:41:30;;;;;;;16.20;4.20;;;;;;;;;;5040143;28;20055;-65
2022/06/28 07:43:57;;;;;;;11.20;4.25;;;;;;;;;;5034879;28;20309;-65
2022/06/28 07:46:23;;;;;;;15.73;4.60;;;;;;;;;;5035051;28;20175;-65
2022/06/28 07:48:50;;;;;;;15.82;4.55;;;;;;;;;;5016118;28;20170;-66
2022/06/28 07:54:01;;;;;;;19.67;5.10;;;;;;;;;;5028433;28;20495;-65
2022/06/28 07:56:28;;;;;;;15.30;4.57;;;;;;;;;;5039301;28;20053;-65
2022/06/28 07:58:54;;;;;;;11.15;3.92;;;;;;;;;;5040141;28;20048;-65
2022/06/28 08:01:22;;;;;;;18.42;4.97;;;;;;;;;;5037200;28;20075;-66
2022/06/28 08:03:48;;;;;;;15.40;4.33;;;;;;;;;;5033956;28;20378;-65
2022/06/28 08:06:14;;;;;;;15.77;3.78;;;;;;;;;;5019321;28;20556;-65
2022/06/28 08:08:41;;;;;;;13.45;3.05;;;;;;;;;;5021803;28;20045;-66
2022/06/28 08:11:08;;;;;;;13.13;3.20;;;;;;;;;;5031402;28;20178;-66
2022/06/28 08:13:35;;;;;;;9.57;2.42;;;;;;;;;;5034557;28;20059;-66
2022/06/28 08:16:02;;;;;;;12.27;2.95;;;;;;;;;;5025302;28;20053;-65
2022/06/28 08:18:28;;;;;;;13.65;3.42;;;;;;;;;;5037206;28;20051;-65
2022/06/28 08:20:55;;;;;;;17.38;3.45;;;;;;;;;;5045336;28;20055;-65
2022/06/28 08:23:21;;;;;;;11.50;2.95;;;;;;;;;;5037097;28;20731;-65
2022/06/28 08:25:48;;;;;;;11.02;3.13;;;;;;;;;;5043580;28;20052;-64
2022/06/28 08:28:14;;;;;;;12.07;3.10;;;;;;;;;;5032646;28;20412;-65
2022/06/28 08:30:41;;;;;;;9.23;2.58;;;;;;;;;;5020651;28;20049;-65
2022/06/28 08:33:08;;;;;;;9.70;2.28;;;;;;;;;;5031945;28;20056;-65
2022/06/28 08:35:34;;;;;;;9.48;2.20;;;;;;;;;;5031664;28;20523;-65
2022/06/28 08:38:04;;;;;;;10.60;2.60;;;;;;;;;;5040217;28;20383;-65
2022/06/28 08:40:31;;;;;;;7.97;1.80;;;;;;;;;;5033446;28;20607;-65
2022/06/28 08:42:59;;;;;;;12.18;2.40;;;;;;;;;;5043156;28;20049;-63
2022/06/28 08:45:30;;;;;;;8.93;2.03;;;;;;;;;;5039165;28;20060;-65
2022/06/28 08:47:57;;;;;;;9.38;2.38;;;;;;;;;;5021166;28;20128;-64
2022/06/28 08:50:35;;;;;;;7.68;2.00;;;;;;;;;;5043643;28;20076;-64
2022/06/28 08:53:02;;;;;;;9.20;1.70;;;;;;;;;;5030059;28;20084;-64
2022/06/28 08:55:29;;;;;;;8.87;1.90;;;;;;;;;;5038446;28;20152;-64
2022/06/28 08:57:56;;;;;;;8.85;1.88;;;;;;;;;;5037467;28;20293;-65
2022/06/28 09:00:23;;;;;;;5.80;1.50;;;;;;;;;;5039918;28;20081;-64
2022/06/28 09:02:51;;;;;;;3.47;1.08;;;;;;;;;;5037217;28;20144;-65
2022/06/28 09:05:19;;;;;;;6.82;1.58;;;;;;;;;;5042717;28;20420;-64
2022/06/28 09:07:45;;;;;;;9.30;1.67;;;;;;;;;;5048261;28;20076;-64
2022/06/28 09:10:12;;;;;;;5.72;1.80;;;;;;;;;;5022526;28;20063;-65
2022/06/28 09:13:05;;;;;;;4.15;1.25;;;;;;;;;;5038673;28;20055;-64
2022/06/28 09:15:44;;;;;;;6.93;1.63;;;;;;;;;;5027293;28;20583;-66
2022/06/28 09:18:10;;;;;;;8.38;1.52;;;;;;;;;;5031779;28;20053;-65
2022/06/28 09:20:38;;;;;;;8.00;1.50;;;;;;;;;;5040813;28;20060;-66
2022/06/28 09:23:19;;;;;;;6.63;1.60;;;;;;;;;;5032335;28;20053;-65
2022/06/28 09:25:47;;;;;;;5.45;1.35;;;;;;;;;;5033564;28;20044;-65
2022/06/28 09:28:21;;;;;;;7.80;2.08;;;;;;;;;;5021440;28;20061;-65
2022/06/28 09:30:48;;;;;;;4.85;1.23;;;;;;;;;;5039728;28;20065;-65
2022/06/28 09:33:24;;;;;;;5.05;1.27;;;;;;;;;;5026428;28;20045;-65
2022/06/28 09:35:51;;;;;;;4.93;1.00;;;;;;;;;;5042076;28;20482;-65
2022/06/28 09:38:32;;;;;;;6.43;1.35;;;;;;;;;;5039653;28;20041;-65
2022/06/28 09:41:00;;;;;;;5.90;1.23;;;;;;;;;;5042887;28;20416;-66
2022/06/28 09:43:31;;;;;;;2.75;0.98;;;;;;;;;;5040866;28;20051;-65
2022/06/28 09:45:58;;;;;;;5.50;1.10;;;;;;;;;;5031874;28;20053;-64
2022/06/28 09:48:24;;;;;;;4.00;1.10;;;;;;;;;;5032769;28;20777;-65
2022/06/28 09:50:57;;;;;;;5.50;1.30;;;;;;;;;;5008539;28;20512;-65
2022/06/28 09:53:24;;;;;;;9.32;1.98;;;;;;;;;;5036113;28;20049;-65
2022/06/28 09:55:51;;;;;;;5.78;1.20;;;;;;;;;;5030880;28;20041;-65
2022/06/28 09:58:19;;;;;;;3.80;1.25;;;;;;;;;;5035838;28;20085;-65
2022/06/28 10:00:45;;;;;;;4.82;1.50;;;;;;;;;;5047535;28;20052;-65
2022/06/28 10:03:12;;;;;;;7.10;1.67;;;;;;;;;;5021933;28;20330;-65
2022/06/28 10:05:38;;;;;;;5.78;1.20;;;;;;;;;;5041409;28;20485;-65
2022/06/28 10:08:05;;;;;;;3.83;1.20;;;;;;;;;;5017278;28;20964;-65
2022/06/28 10:10:33;;;;;;;3.97;1.20;;;;;;;;;;5034025;28;20550;-65
2022/06/28 10:15:54;;;;;;;6.43;1.20;;;;;;;;;;5030337;28;20164;-65
2022/06/28 10:18:22;;;;;;;4.70;1.08;;;;;;;;;;5032302;28;20140;-65
2022/06/28 10:20:48;;;;;;;3.85;1.13;;;;;;;;;;5030466;28;20075;-65
2022/06/28 10:23:23;;;;;;;2.92;1.02;;;;;;;;;;5040041;28;20420;-65
2022/06/28 10:26:09;;;;;;;4.13;1.02;;;;;;;;;;5045931;28;20787;-65
2022/06/28 10:28:37;;;;;;;5.97;1.20;;;;;;;;;;5041969;28;20812;-65
2022/06/28 10:31:22;;;;;;;4.85;1.33;;;;;;;;;;5026143;28;20061;-65
2022/06/28 10:34:11;;;;;;;4.60;1.25;;;;;;;;;;5035372;28;20056;-65
2022/06/28 10:36:46;;;;;;;4.22;1.25;;;;;;;;;;5030662;28;20137;-65
2022/06/28 10:39:13;;;;;;;4.90;1.00;;;;;;;;;;5054866;28;20132;-64
2022/06/28 10:41:43;;;;;;;4.03;1.20;;;;;;;;;;5025271;28;20044;-65
2022/06/28 10:44:18;;;;;;;4.78;1.10;;;;;;;;;;5029964;28;20528;-65
2022/06/28 10:46:49;;;;;;;4.88;1.33;;;;;;;;;;5037244;28;20063;-65
2022/06/28 10:49:15;;;;;;;5.55;1.05;;;;;;;;;;5024967;28;20083;-64
2022/06/28 10:52:01;;;;;;;4.97;1.17;;;;;;;;;;5030337;28;20132;-65
2022/06/28 10:54:28;;;;;;;3.80;0.90;;;;;;;;;;5013672;28;20057;-65
2022/06/28 10:56:56;;;;;;;3.28;0.98;;;;;;;;;;5034117;28;20092;-65
2022/06/28 10:59:34;;;;;;;3.85;0.95;;;;;;;;;;5036395;28;20280;-65
2022/06/28 11:02:00;;;;;;;3.38;1.10;;;;;;;;;;5028126;28;20160;-65
2022/06/28 11:04:28;;;;;;;4.20;0.88;;;;;;;;;;5035925;28;20060;-65
2022/06/28 11:06:56;;;;;;;3.30;1.02;;;;;;;;;;5025653;28;20053;-66
2022/06/28 11:09:37;;;;;;;4.30;1.17;;;;;;;;;;5033016;28;20107;-64
2022/06/28 11:12:04;;;;;;;5.28;1.25;;;;;;;;;;5032966;28;20403;-65
2022/06/28 11:14:32;;;;;;;4.10;1.27;;;;;;;;;;5031730;28;20065;-65
2022/06/28 11:17:13;;;;;;;6.80;1.20;;;;;;;;;;5029018;28;20045;-65
2022/06/28 11:19:39;;;;;;;3.75;1.50;;;;;;;;;;5027379;28;20047;-65
2022/06/28 11:22:07;;;;;;;7.15;1.40;;;;;;;;;;5037059;28;20048;-65
2022/06/28 11:24:39;;;;;;;5.28;1.45;;;;;;;;;;5030119;28;20849;-66
2022/06/28 11:27:21;;;;;;;6.82;1.40;;;;;;;;;;5041096;28;20049;-65
2022/06/28 11:29:49;;;;;;;8.23;1.42;;;;;;;;;;5019826;28;20840;-65
2022/06/28 11:32:16;;;;;;;4.35;1.10;;;;;;;;;;5037198;28;20488;-65
2022/06/28 11:34:43;;;;;;;4.90;1.20;;;;;;;;;;5029759;28;20059;-65
2022/06/28 11:37:09;;;;;;;5.65;1.30;;;;;;;;;;5034027;28;20052;-64
2022/06/28 11:39:35;;;;;;;5.13;1.05;;;;;;;;;;5037101;28;20049;-65
2022/06/28 11:42:02;;;;;;;3.90;1.20;;;;;;;;;;5021823;28;20053;-66
2022/06/28 11:44:28;;;;;;;6.93;2.10;;;;;;;;;;5033313;28;20045;-65
2022/06/28 11:46:55;;;;;;;5.53;1.60;;;;;;;;;;5034744;28;20055;-65
2022/06/28 11:49:25;;;;;;;3.03;0.98;;;;;;;;;;5034932;28;20053;-65
2022/06/28 11:51:51;;;;;;;3.83;1.15;;;;;;;;;;5031901;28;20053;-65
2022/06/28 11:54:19;;;;;;;3.42;1.20;;;;;;;;;;5039794;28;20072;-64
2022/06/28 11:56:46;;;;;;;7.25;1.10;;;;;;;;;;5032369;28;20049;-66
2022/06/28 11:59:14;;;;;;;5.43;1.43;;;;;;;;;;5032957;28;20071;-65
2022/06/28 12:01:41;;;;;;;6.18;1.23;;;;;;;;;;5040495;28;20383;-65
2022/06/28 12:04:09;;;;;;;4.80;1.23;;;;;;;;;;5028882;28;20050;-65
2022/06/28 12:06:39;;;;;;;5.88;1.20;;;;;;;;;;5036400;28;20099;-64
2022/06/28 12:09:06;;;;;;;3.03;0.95;;;;;;;;;;5022967;28;20116;-66
2022/06/28 12:11:40;;;;;;;4.88;1.20;;;;;;;;;;5023061;28;20084;-65
2022/06/28 12:14:06;;;;;;;3.28;1.10;;;;;;;;;;5031869;28;20049;-64
2022/06/28 12:16:33;;;;;;;4.80;1.10;;;;;;;;;;5017365;28;20049;-65
2022/06/28 12:19:00;;;;;;;10.38;1.50;;;;;;;;;;5039002;28;20056;-65
2022/06/28 12:21:27;;;;;;;7.77;1.30;;;;;;;;;;5033889;28;20136;-65
2022/06/28 12:23:54;;;;;;;5.10;1.13;;;;;;;;;;5038093;28;20303;-66
2022/06/28 12:26:22;;;;;;;6.97;1.40;;;;;;;;;;5039559;28;20088;-65
2022/06/28 12:28:48;;;;;;;4.70;1.30;;;;;;;;;;5032986;28;20055;-65
2022/06/28 12:31:15;;;;;;;5.38;1.40;;;;;;;;;;5040122;28;20549;-64
2022/06/28 12:33:42;;;;;;;2.97;1.10;;;;;;;;;;5033322;28;20055;-65
2022/06/28 12:36:09;;;;;;;3.90;1.38;;;;;;;;;;5037730;28;20131;-65
2022/06/28 12:38:35;;;;;;;5.72;1.38;;;;;;;;;;5032111;28;20061;-65
2022/06/28 12:41:02;;;;;;;5.07;1.23;;;;;;;;;;5034721;28;20133;-65
2022/06/28 12:43:28;;;;;;;5.82;1.33;;;;;;;;;;5040157;28;20057;-65
2022/06/28 12:45:54;;;;;;;5.60;1.33;;;;;;;;;;5037039;28;20049;-65
2022/06/28 12:48:20;;;;;;;4.68;1.15;;;;;;;;;;5041903;28;20053;-65
2022/06/28 12:50:50;;;;;;;4.18;1.60;;;;;;;;;;5038692;28;20073;-65
2022/06/28 12:53:16;;;;;;;3.15;0.90;;;;;;;;;;5037975;28;20581;-65
2022/06/28 12:55:42;;;;;;;7.40;1.90;;;;;;;;;;5041126;28;20051;-65
2022/06/28 12:58:09;;;;;;;3.88;1.20;;;;;;;;;;5033395;28;20048;-65
2022/06/28 13:00:35;;;;;;;5.80;1.42;;;;;;;;;;5042242;28;20152;-66
2022/06/28 13:03:01;;;;;;;3.55;1.10;;;;;;;;;;5034969;28;20045;-65
2022/06/28 13:05:28;;;;;;;4.93;1.40;;;;;;;;;;5038875;28;20045;-65
2022/06/28 13:07:56;;;;;;;4.20;1.30;;;;;;;;;;5051373;28;20094;-65
2022/06/28 13:10:23;;;;;;;6.13;1.10;;;;;;;;;;5061800;28;20081;-66
2022/06/28 13:12:49;;;;;;;3.85;1.42;;;;;;;;;;5048632;28;20052;-66
2022/06/28 13:15:15;;;;;;;7.78;1.30;;;;;;;;;;5046177;28;20062;-64
2022/06/28 13:17:42;;;;;;;5.38;1.33;;;;;;;;;;5057156;28;20431;-65
2022/06/28 13:20:08;;;;;;;5.22;0.98;;;;;;;;;;5053534;28;20464;-64
2022/06/28 13:22:53;;;;;;;5.13;1.50;;;;;;;;;;5062329;28;20762;-66
2022/06/28 13:25:19;;;;;;;3.97;1.30;;;;;;;;;;5049328;28;20103;-65
2022/06/28 13:27:46;;;;;;;3.10;1.20;;;;;;;;;;5043744;28;20081;-66
2022/06/28 13:30:13;;;;;;;2.65;1.05;;;;;;;;;;5052507;28;20591;-66
2022/06/28 13:32:39;;;;;;;3.80;1.23;;;;;;;;;;5049274;28;20159;-65
2022/06/28 13:35:06;;;;;;;4.45;1.10;;;;;;;;;;5056200;28;20267;-65
2022/06/28 13:37:32;;;;;;;5.68;1.30;;;;;;;;;;5049347;28;20045;-65
2022/06/28 13:40:06;;;;;;;5.15;1.20;;;;;;;;;;5062585;28;20057;-66
2022/06/28 13:42:33;;;;;;;3.25;1.20;;;;;;;;;;5057688;28;20057;-65
2022/06/28 13:44:59;;;;;;;3.45;1.20;;;;;;;;;;5052755;28;20055;-65
2022/06/28 13:47:25;;;;;;;1.73;0.93;;;;;;;;;;5056976;28;20346;-66
2022/06/28 13:49:52;;;;;;;4.35;1.27;;;;;;;;;;5050356;28;20054;-66
2022/06/28 13:52:18;;;;;;;4.47;1.00;;;;;;;;;;5059063;28;20115;-67
2022/06/28 13:54:44;;;;;;;6.22;1.27;;;;;;;;;;5050010;28;20472;-66
2022/06/28 13:57:11;;;;;;;5.18;1.13;;;;;;;;;;5045451;28;20044;-65
2022/06/28 13:59:37;;;;;;;3.33;1.08;;;;;;;;;;5061096;28;20044;-66
2022/06/28 14:02:04;;;;;;;6.25;1.25;;;;;;;;;;5052074;28;20122;-66
2022/06/28 14:04:30;;;;;;;6.03;1.33;;;;;;;;;;5056048;28;20086;-66
2022/06/28 14:06:56;;;;;;;5.65;1.15;;;;;;;;;;5041277;28;20040;-65
2022/06/28 14:09:23;;;;;;;3.80;1.10;;;;;;;;;;5056480;28;20048;-64
2022/06/28 14:11:49;;;;;;;4.10;1.50;;;;;;;;;;5050500;28;20043;-65
2022/06/28 14:14:16;;;;;;;3.08;1.10;;;;;;;;;;5051009;28;20045;-65
2022/06/28 14:16:42;;;;;;;1.92;1.05;;;;;;;;;;5058319;28;20547;-65
2022/06/28 14:19:09;;;;;;;3.22;1.23;;;;;;;;;;5051897;28;20527;-66
2022/06/28 14:21:35;;;;;;;4.35;1.10;;;;;;;;;;5056565;28;20968;-66
2022/06/28 14:24:01;;;;;;;3.75;1.15;;;;;;;;;;5051608;28;20451;-65
2022/06/28 14:26:28;;;;;;;3.97;1.20;;;;;;;;;;5057002;28;20044;-65
2022/06/28 14:28:56;;;;;;;4.45;0.90;;;;;;;;;;5060855;28;20040;-65
2022/06/28 14:31:26;;;;;;;2.60;1.15;;;;;;;;;;5040775;28;20421;-65
2022/06/28 14:34:13;;;;;;;4.03;1.20;;;;;;;;;;5060549;28;20485;-65
2022/06/28 14:36:41;;;;;;;3.95;1.10;;;;;;;;;;5047075;28;20122;-66
2022/06/28 14:39:08;;;;;;;4.63;1.17;;;;;;;;;;5060184;28;20501;-65
2022/06/28 14:41:34;;;;;;;4.00;1.45;;;;;;;;;;5055709;28;20155;-66
2022/06/28 14:44:00;;;;;;;3.80;1.33;;;;;;;;;;5060254;28;20517;-64
2022/06/28 14:46:27;;;;;;;2.80;0.98;;;;;;;;;;5047740;28;20049;-65
2022/06/28 14:48:53;;;;;;;3.10;1.13;;;;;;;;;;5050256;28;20085;-66
2022/06/28 14:51:19;;;;;;;2.15;1.00;;;;;;;;;;5057413;28;20045;-65
2022/06/28 14:53:46;;;;;;;2.75;1.13;;;;;;;;;;5047966;28;20557;-65